sensor_id;sensor_type;location;lat;lon;timestamp;P1;durP1;ratioP1;P2;durP2;ratioP2
66927;SDS011;59882;45.624;11.698;2023-03-01T00:00:27;18.63;;;9.80;;
66927;SDS011;59882;45.624;11.698;2023-03-01T00:02:53;19.30;;;10.17;;
66927;SDS011;59882;45.624;11.698;2023-03-01T00:05:18;19.98;;;11.10;;
66927;SDS011;59882;45.624;11.698;2023-03-01T00:07:44;17.93;;;10.17;;
66927;SDS011;59882;45.624;11.698;2023-03-01T00:10:10;21.83;;;10.27;;
66927;SDS011;59882;45.624;11.698;2023-03-01T00:12:36;19.85;;;11.52;;
66927;SDS011;59882;45.624;11.698;2023-03-01T00:15:01;22.88;;;12.05;;
66927;SDS011;59882;45.624;11.698;2023-03-01T00:17:29;21.97;;;11.53;;
66927;SDS011;59882;45.624;11.698;2023-03-01T00:19:55;19.15;;;11.15;;
66927;SDS011;59882;45.624;11.698;2023-03-01T00:22:20;19.97;;;10.50;;
66927;SDS011;59882;45.624;11.698;2023-03-01T00:24:46;20.73;;;11.60;;
66927;SDS011;59882;45.624;11.698;2023-03-01T00:27:12;20.35;;;11.27;;
66927;SDS011;59882;45.624;11.698;2023-03-01T00:29:37;20.30;;;10.53;;
66927;SDS011;59882;45.624;11.698;2023-03-01T00:32:03;21.08;;;10.77;;
66927;SDS011;59882;45.624;11.698;2023-03-01T00:34:29;19.40;;;9.40;;
66927;SDS011;59882;45.624;11.698;2023-03-01T00:36:54;22.30;;;10.85;;
66927;SDS011;59882;45.624;11.698;2023-03-01T00:39:20;21.17;;;11.13;;
66927;SDS011;59882;45.624;11.698;2023-03-01T00:41:46;17.20;;;9.50;;
66927;SDS011;59882;45.624;11.698;2023-03-01T00:44:11;18.23;;;10.73;;
66927;SDS011;59882;45.624;11.698;2023-03-01T00:46:37;19.50;;;9.85;;
66927;SDS011;59882;45.624;11.698;2023-03-01T00:49:03;18.67;;;10.37;;
66927;SDS011;59882;45.624;11.698;2023-03-01T00:51:29;17.95;;;10.82;;
66927;SDS011;59882;45.624;11.698;2023-03-01T00:53:57;17.60;;;10.07;;
66927;SDS011;59882;45.624;11.698;2023-03-01T00:56:24;18.05;;;10.38;;
66927;SDS011;59882;45.624;11.698;2023-03-01T00:58:50;19.37;;;11.03;;
66927;SDS011;59882;45.624;11.698;2023-03-01T01:01:17;24.38;;;11.05;;
66927;SDS011;59882;45.624;11.698;2023-03-01T01:03:48;22.63;;;11.30;;
66927;SDS011;59882;45.624;11.698;2023-03-01T01:06:16;19.27;;;9.88;;
66927;SDS011;59882;45.624;11.698;2023-03-01T01:09:03;18.55;;;10.63;;
66927;SDS011;59882;45.624;11.698;2023-03-01T01:11:30;21.38;;;11.07;;
66927;SDS011;59882;45.624;11.698;2023-03-01T01:13:56;21.92;;;10.55;;
66927;SDS011;59882;45.624;11.698;2023-03-01T01:16:23;22.90;;;12.63;;
66927;SDS011;59882;45.624;11.698;2023-03-01T01:18:51;18.98;;;10.68;;
66927;SDS011;59882;45.624;11.698;2023-03-01T01:21:18;22.65;;;11.15;;
66927;SDS011;59882;45.624;11.698;2023-03-01T01:23:45;18.73;;;11.20;;
66927;SDS011;59882;45.624;11.698;2023-03-01T01:26:19;22.35;;;11.35;;
66927;SDS011;59882;45.624;11.698;2023-03-01T01:28:46;18.77;;;11.63;;
66927;SDS011;59882;45.624;11.698;2023-03-01T01:31:12;21.65;;;11.63;;
66927;SDS011;59882;45.624;11.698;2023-03-01T01:33:38;20.60;;;11.65;;
66927;SDS011;59882;45.624;11.698;2023-03-01T01:36:04;22.03;;;12.47;;
66927;SDS011;59882;45.624;11.698;2023-03-01T01:38:31;25.53;;;12.03;;
66927;SDS011;59882;45.624;11.698;2023-03-01T01:40:57;21.88;;;12.23;;
66927;SDS011;59882;45.624;11.698;2023-03-01T01:43:27;19.17;;;11.50;;
66927;SDS011;59882;45.624;11.698;2023-03-01T01:45:55;23.05;;;10.80;;
66927;SDS011;59882;45.624;11.698;2023-03-01T01:52:10;23.13;;;11.98;;
66927;SDS011;59882;45.624;11.698;2023-03-01T01:54:41;21.63;;;10.70;;
66927;SDS011;59882;45.624;11.698;2023-03-01T01:57:39;18.70;;;10.93;;
66927;SDS011;59882;45.624;11.698;2023-03-01T02:00:12;21.33;;;10.68;;
66927;SDS011;59882;45.624;11.698;2023-03-01T02:02:43;20.38;;;11.77;;
66927;SDS011;59882;45.624;11.698;2023-03-01T02:05:57;18.92;;;10.77;;
66927;SDS011;59882;45.624;11.698;2023-03-01T02:08:00;20.77;;;10.98;;
66927;SDS011;59882;45.624;11.698;2023-03-01T02:10:26;16.47;;;9.60;;
66927;SDS011;59882;45.624;11.698;2023-03-01T02:12:53;17.77;;;10.13;;
66927;SDS011;59882;45.624;11.698;2023-03-01T02:15:21;20.48;;;11.35;;
66927;SDS011;59882;45.624;11.698;2023-03-01T02:17:47;18.58;;;10.20;;
66927;SDS011;59882;45.624;11.698;2023-03-01T02:20:19;22.10;;;10.83;;
66927;SDS011;59882;45.624;11.698;2023-03-01T02:22:48;18.65;;;10.80;;
66927;SDS011;59882;45.624;11.698;2023-03-01T02:30:20;18.95;;;9.88;;
66927;SDS011;59882;45.624;11.698;2023-03-01T02:32:47;20.13;;;10.63;;
66927;SDS011;59882;45.624;11.698;2023-03-01T02:35:14;19.13;;;10.90;;
66927;SDS011;59882;45.624;11.698;2023-03-01T02:37:42;19.92;;;10.32;;
66927;SDS011;59882;45.624;11.698;2023-03-01T02:40:10;21.00;;;10.45;;
66927;SDS011;59882;45.624;11.698;2023-03-01T02:42:46;16.65;;;9.63;;
66927;SDS011;59882;45.624;11.698;2023-03-01T02:45:18;18.23;;;9.10;;
66927;SDS011;59882;45.624;11.698;2023-03-01T02:47:44;20.75;;;9.90;;
66927;SDS011;59882;45.624;11.698;2023-03-01T02:50:22;17.77;;;9.50;;
66927;SDS011;59882;45.624;11.698;2023-03-01T02:55:37;19.60;;;10.32;;
66927;SDS011;59882;45.624;11.698;2023-03-01T02:58:04;17.15;;;9.25;;
66927;SDS011;59882;45.624;11.698;2023-03-01T03:00:31;17.00;;;9.10;;
66927;SDS011;59882;45.624;11.698;2023-03-01T03:03:00;18.33;;;10.35;;
66927;SDS011;59882;45.624;11.698;2023-03-01T03:05:27;19.17;;;8.53;;
66927;SDS011;59882;45.624;11.698;2023-03-01T03:07:55;17.17;;;8.80;;
66927;SDS011;59882;45.624;11.698;2023-03-01T03:10:22;17.88;;;9.20;;
66927;SDS011;59882;45.624;11.698;2023-03-01T03:12:53;15.38;;;8.60;;
66927;SDS011;59882;45.624;11.698;2023-03-01T03:15:21;18.30;;;9.10;;
66927;SDS011;59882;45.624;11.698;2023-03-01T03:17:47;17.93;;;9.63;;
66927;SDS011;59882;45.624;11.698;2023-03-01T03:20:15;18.20;;;9.35;;
66927;SDS011;59882;45.624;11.698;2023-03-01T03:22:44;19.40;;;9.55;;
66927;SDS011;59882;45.624;11.698;2023-03-01T03:25:11;17.92;;;8.75;;
66927;SDS011;59882;45.624;11.698;2023-03-01T03:27:37;16.88;;;8.57;;
66927;SDS011;59882;45.624;11.698;2023-03-01T03:30:05;18.20;;;8.33;;
66927;SDS011;59882;45.624;11.698;2023-03-01T03:32:37;17.13;;;8.80;;
66927;SDS011;59882;45.624;11.698;2023-03-01T03:35:04;15.73;;;8.32;;
66927;SDS011;59882;45.624;11.698;2023-03-01T03:37:37;19.50;;;9.50;;
66927;SDS011;59882;45.624;11.698;2023-03-01T03:40:23;15.07;;;8.07;;
66927;SDS011;59882;45.624;11.698;2023-03-01T03:42:50;17.57;;;8.77;;
66927;SDS011;59882;45.624;11.698;2023-03-01T03:45:16;22.98;;;9.63;;
66927;SDS011;59882;45.624;11.698;2023-03-01T03:47:42;16.42;;;9.45;;
66927;SDS011;59882;45.624;11.698;2023-03-01T03:50:09;19.35;;;10.30;;
66927;SDS011;59882;45.624;11.698;2023-03-01T03:52:35;18.00;;;9.80;;
66927;SDS011;59882;45.624;11.698;2023-03-01T03:55:01;17.33;;;9.85;;
66927;SDS011;59882;45.624;11.698;2023-03-01T03:57:26;16.83;;;9.37;;
66927;SDS011;59882;45.624;11.698;2023-03-01T03:59:52;16.13;;;9.07;;
66927;SDS011;59882;45.624;11.698;2023-03-01T04:02:17;18.57;;;9.80;;
66927;SDS011;59882;45.624;11.698;2023-03-01T04:04:50;17.85;;;9.40;;
66927;SDS011;59882;45.624;11.698;2023-03-01T04:07:16;19.60;;;9.98;;
66927;SDS011;59882;45.624;11.698;2023-03-01T04:09:42;18.30;;;8.70;;
66927;SDS011;59882;45.624;11.698;2023-03-01T04:12:09;17.73;;;9.52;;
66927;SDS011;59882;45.624;11.698;2023-03-01T04:14:35;16.38;;;9.05;;
66927;SDS011;59882;45.624;11.698;2023-03-01T04:17:01;17.10;;;9.10;;
66927;SDS011;59882;45.624;11.698;2023-03-01T04:19:30;17.42;;;9.43;;
66927;SDS011;59882;45.624;11.698;2023-03-01T04:22:01;21.03;;;9.40;;
66927;SDS011;59882;45.624;11.698;2023-03-01T04:24:34;18.05;;;9.30;;
66927;SDS011;59882;45.624;11.698;2023-03-01T04:27:00;16.98;;;8.80;;
66927;SDS011;59882;45.624;11.698;2023-03-01T04:29:26;17.27;;;8.95;;
66927;SDS011;59882;45.624;11.698;2023-03-01T04:31:52;17.77;;;9.83;;
66927;SDS011;59882;45.624;11.698;2023-03-01T04:34:17;19.08;;;10.25;;
66927;SDS011;59882;45.624;11.698;2023-03-01T04:36:43;16.60;;;8.47;;
66927;SDS011;59882;45.624;11.698;2023-03-01T04:39:09;18.77;;;9.25;;
66927;SDS011;59882;45.624;11.698;2023-03-01T04:41:38;20.38;;;8.88;;
66927;SDS011;59882;45.624;11.698;2023-03-01T04:44:05;17.17;;;8.83;;
66927;SDS011;59882;45.624;11.698;2023-03-01T04:46:31;16.85;;;9.23;;
66927;SDS011;59882;45.624;11.698;2023-03-01T04:48:56;17.87;;;8.70;;
66927;SDS011;59882;45.624;11.698;2023-03-01T04:51:22;16.93;;;9.27;;
66927;SDS011;59882;45.624;11.698;2023-03-01T04:53:48;21.00;;;9.23;;
66927;SDS011;59882;45.624;11.698;2023-03-01T04:56:14;14.63;;;8.82;;
66927;SDS011;59882;45.624;11.698;2023-03-01T04:58:39;14.05;;;8.45;;
66927;SDS011;59882;45.624;11.698;2023-03-01T05:01:24;17.20;;;8.48;;
66927;SDS011;59882;45.624;11.698;2023-03-01T05:03:50;17.80;;;8.73;;
66927;SDS011;59882;45.624;11.698;2023-03-01T05:06:17;18.42;;;9.07;;
66927;SDS011;59882;45.624;11.698;2023-03-01T05:08:43;14.90;;;8.68;;
66927;SDS011;59882;45.624;11.698;2023-03-01T05:11:10;21.23;;;11.20;;
66927;SDS011;59882;45.624;11.698;2023-03-01T05:13:36;28.77;;;9.98;;
66927;SDS011;59882;45.624;11.698;2023-03-01T05:16:04;23.13;;;9.43;;
66927;SDS011;59882;45.624;11.698;2023-03-01T05:18:32;19.92;;;9.80;;
66927;SDS011;59882;45.624;11.698;2023-03-01T05:21:06;18.33;;;10.38;;
66927;SDS011;59882;45.624;11.698;2023-03-01T05:23:34;21.75;;;10.45;;
66927;SDS011;59882;45.624;11.698;2023-03-01T05:26:03;19.95;;;9.80;;
66927;SDS011;59882;45.624;11.698;2023-03-01T05:28:30;20.40;;;10.53;;
66927;SDS011;59882;45.624;11.698;2023-03-01T05:30:56;18.20;;;9.70;;
66927;SDS011;59882;45.624;11.698;2023-03-01T05:33:23;17.02;;;9.52;;
66927;SDS011;59882;45.624;11.698;2023-03-01T05:35:49;19.05;;;10.98;;
66927;SDS011;59882;45.624;11.698;2023-03-01T05:38:15;19.85;;;10.48;;
66927;SDS011;59882;45.624;11.698;2023-03-01T05:40:42;21.67;;;10.97;;
66927;SDS011;59882;45.624;11.698;2023-03-01T05:43:09;20.55;;;10.73;;
66927;SDS011;59882;45.624;11.698;2023-03-01T05:45:35;19.60;;;10.15;;
66927;SDS011;59882;45.624;11.698;2023-03-01T05:48:03;19.13;;;10.35;;
66927;SDS011;59882;45.624;11.698;2023-03-01T05:50:31;20.27;;;11.45;;
66927;SDS011;59882;45.624;11.698;2023-03-01T05:53:00;20.53;;;11.00;;
66927;SDS011;59882;45.624;11.698;2023-03-01T05:55:35;20.85;;;11.50;;
66927;SDS011;59882;45.624;11.698;2023-03-01T05:58:02;20.92;;;11.60;;
66927;SDS011;59882;45.624;11.698;2023-03-01T06:00:29;19.55;;;10.15;;
66927;SDS011;59882;45.624;11.698;2023-03-01T06:02:55;20.80;;;10.97;;
66927;SDS011;59882;45.624;11.698;2023-03-01T06:05:22;20.63;;;10.73;;
66927;SDS011;59882;45.624;11.698;2023-03-01T06:07:48;22.58;;;10.98;;
66927;SDS011;59882;45.624;11.698;2023-03-01T06:10:15;17.38;;;10.52;;
66927;SDS011;59882;45.624;11.698;2023-03-01T06:12:41;19.43;;;11.13;;
66927;SDS011;59882;45.624;11.698;2023-03-01T06:15:08;26.75;;;14.50;;
66927;SDS011;59882;45.624;11.698;2023-03-01T06:17:36;29.77;;;16.30;;
66927;SDS011;59882;45.624;11.698;2023-03-01T06:20:04;29.38;;;15.18;;
66927;SDS011;59882;45.624;11.698;2023-03-01T06:22:31;23.75;;;13.48;;
66927;SDS011;59882;45.624;11.698;2023-03-01T06:24:56;26.53;;;14.33;;
66927;SDS011;59882;45.624;11.698;2023-03-01T06:27:22;27.37;;;13.90;;
66927;SDS011;59882;45.624;11.698;2023-03-01T06:29:47;26.92;;;14.93;;
66927;SDS011;59882;45.624;11.698;2023-03-01T06:32:13;29.70;;;15.35;;
66927;SDS011;59882;45.624;11.698;2023-03-01T06:34:39;20.93;;;11.33;;
66927;SDS011;59882;45.624;11.698;2023-03-01T06:37:05;20.77;;;10.83;;
66927;SDS011;59882;45.624;11.698;2023-03-01T06:39:32;20.15;;;10.15;;
66927;SDS011;59882;45.624;11.698;2023-03-01T06:41:58;18.88;;;10.60;;
66927;SDS011;59882;45.624;11.698;2023-03-01T06:44:23;18.02;;;10.27;;
66927;SDS011;59882;45.624;11.698;2023-03-01T06:46:49;19.87;;;11.00;;
66927;SDS011;59882;45.624;11.698;2023-03-01T06:49:15;19.90;;;9.52;;
66927;SDS011;59882;45.624;11.698;2023-03-01T06:51:42;21.88;;;10.30;;
66927;SDS011;59882;45.624;11.698;2023-03-01T06:54:08;20.10;;;10.63;;
66927;SDS011;59882;45.624;11.698;2023-03-01T06:56:34;21.23;;;9.75;;
66927;SDS011;59882;45.624;11.698;2023-03-01T06:59:00;19.90;;;10.43;;
66927;SDS011;59882;45.624;11.698;2023-03-01T07:01:27;17.87;;;9.60;;
66927;SDS011;59882;45.624;11.698;2023-03-01T07:03:53;17.65;;;9.82;;
66927;SDS011;59882;45.624;11.698;2023-03-01T07:06:19;26.17;;;12.82;;
66927;SDS011;59882;45.624;11.698;2023-03-01T07:08:46;21.75;;;13.13;;
66927;SDS011;59882;45.624;11.698;2023-03-01T07:11:11;21.17;;;11.60;;
66927;SDS011;59882;45.624;11.698;2023-03-01T07:13:37;21.77;;;11.38;;
66927;SDS011;59882;45.624;11.698;2023-03-01T07:16:03;21.80;;;12.27;;
66927;SDS011;59882;45.624;11.698;2023-03-01T07:18:29;25.03;;;11.37;;
66927;SDS011;59882;45.624;11.698;2023-03-01T07:20:55;22.98;;;12.05;;
66927;SDS011;59882;45.624;11.698;2023-03-01T07:23:20;21.70;;;11.20;;
66927;SDS011;59882;45.624;11.698;2023-03-01T07:25:52;21.15;;;11.02;;
66927;SDS011;59882;45.624;11.698;2023-03-01T07:28:19;18.33;;;10.23;;
66927;SDS011;59882;45.624;11.698;2023-03-01T07:30:45;20.88;;;11.95;;
66927;SDS011;59882;45.624;11.698;2023-03-01T07:33:10;22.33;;;12.13;;
66927;SDS011;59882;45.624;11.698;2023-03-01T07:35:36;28.30;;;14.60;;
66927;SDS011;59882;45.624;11.698;2023-03-01T07:38:01;34.83;;;18.87;;
66927;SDS011;59882;45.624;11.698;2023-03-01T07:40:27;32.97;;;16.87;;
66927;SDS011;59882;45.624;11.698;2023-03-01T07:42:56;28.07;;;15.73;;
66927;SDS011;59882;45.624;11.698;2023-03-01T07:45:23;27.65;;;13.52;;
66927;SDS011;59882;45.624;11.698;2023-03-01T07:47:52;27.52;;;13.10;;
66927;SDS011;59882;45.624;11.698;2023-03-01T07:50:19;23.63;;;12.97;;
66927;SDS011;59882;45.624;11.698;2023-03-01T07:52:48;24.35;;;12.60;;
66927;SDS011;59882;45.624;11.698;2023-03-01T07:55:15;26.08;;;13.05;;
66927;SDS011;59882;45.624;11.698;2023-03-01T07:57:41;28.30;;;13.40;;
66927;SDS011;59882;45.624;11.698;2023-03-01T08:00:07;22.83;;;12.77;;
66927;SDS011;59882;45.624;11.698;2023-03-01T08:02:36;30.27;;;15.13;;
66927;SDS011;59882;45.624;11.698;2023-03-01T08:05:01;23.88;;;13.52;;
66927;SDS011;59882;45.624;11.698;2023-03-01T08:07:27;24.57;;;12.80;;
66927;SDS011;59882;45.624;11.698;2023-03-01T08:09:53;22.27;;;12.88;;
66927;SDS011;59882;45.624;11.698;2023-03-01T08:12:18;20.20;;;11.13;;
66927;SDS011;59882;45.624;11.698;2023-03-01T08:14:44;19.50;;;10.68;;
66927;SDS011;59882;45.624;11.698;2023-03-01T08:17:10;22.20;;;11.73;;
66927;SDS011;59882;45.624;11.698;2023-03-01T08:19:38;21.60;;;10.13;;
66927;SDS011;59882;45.624;11.698;2023-03-01T08:22:03;22.23;;;11.20;;
66927;SDS011;59882;45.624;11.698;2023-03-01T08:24:29;18.65;;;11.20;;
66927;SDS011;59882;45.624;11.698;2023-03-01T08:26:55;19.83;;;11.07;;
66927;SDS011;59882;45.624;11.698;2023-03-01T08:29:21;19.25;;;11.23;;
66927;SDS011;59882;45.624;11.698;2023-03-01T08:31:47;20.17;;;10.75;;
66927;SDS011;59882;45.624;11.698;2023-03-01T08:34:14;22.40;;;10.97;;
66927;SDS011;59882;45.624;11.698;2023-03-01T08:36:41;19.20;;;9.98;;
66927;SDS011;59882;45.624;11.698;2023-03-01T08:39:09;20.02;;;9.75;;
66927;SDS011;59882;45.624;11.698;2023-03-01T08:41:37;17.95;;;9.85;;
66927;SDS011;59882;45.624;11.698;2023-03-01T08:44:04;18.52;;;9.85;;
66927;SDS011;59882;45.624;11.698;2023-03-01T08:46:31;16.23;;;7.60;;
66927;SDS011;59882;45.624;11.698;2023-03-01T08:48:58;14.65;;;8.73;;
66927;SDS011;59882;45.624;11.698;2023-03-01T08:51:25;17.38;;;8.75;;
66927;SDS011;59882;45.624;11.698;2023-03-01T08:53:51;16.60;;;8.50;;
66927;SDS011;59882;45.624;11.698;2023-03-01T08:56:17;21.53;;;10.00;;
66927;SDS011;59882;45.624;11.698;2023-03-01T08:58:44;19.90;;;9.95;;
66927;SDS011;59882;45.624;11.698;2023-03-01T09:01:11;17.95;;;9.23;;
66927;SDS011;59882;45.624;11.698;2023-03-01T09:03:39;14.95;;;8.63;;
66927;SDS011;59882;45.624;11.698;2023-03-01T09:06:06;17.48;;;8.15;;
66927;SDS011;59882;45.624;11.698;2023-03-01T09:08:39;15.80;;;8.70;;
66927;SDS011;59882;45.624;11.698;2023-03-01T09:11:12;16.83;;;9.30;;
66927;SDS011;59882;45.624;11.698;2023-03-01T09:13:41;16.95;;;7.53;;
66927;SDS011;59882;45.624;11.698;2023-03-01T09:16:07;15.98;;;9.20;;
66927;SDS011;59882;45.624;11.698;2023-03-01T09:18:33;16.05;;;8.20;;
66927;SDS011;59882;45.624;11.698;2023-03-01T09:21:04;16.10;;;7.17;;
66927;SDS011;59882;45.624;11.698;2023-03-01T09:23:41;13.35;;;6.40;;
66927;SDS011;59882;45.624;11.698;2023-03-01T09:26:10;14.80;;;5.90;;
66927;SDS011;59882;45.624;11.698;2023-03-01T09:28:41;13.32;;;6.32;;
66927;SDS011;59882;45.624;11.698;2023-03-01T09:31:09;12.68;;;5.93;;
66927;SDS011;59882;45.624;11.698;2023-03-01T09:33:34;9.97;;;5.47;;
66927;SDS011;59882;45.624;11.698;2023-03-01T09:36:00;13.57;;;5.10;;
66927;SDS011;59882;45.624;11.698;2023-03-01T09:38:28;14.00;;;5.53;;
66927;SDS011;59882;45.624;11.698;2023-03-01T09:40:55;11.80;;;5.78;;
66927;SDS011;59882;45.624;11.698;2023-03-01T09:45:55;9.57;;;5.40;;
66927;SDS011;59882;45.624;11.698;2023-03-01T09:48:26;11.18;;;5.25;;
66927;SDS011;59882;45.624;11.698;2023-03-01T09:50:55;11.25;;;6.20;;
66927;SDS011;59882;45.624;11.698;2023-03-01T09:53:23;10.82;;;5.13;;
66927;SDS011;59882;45.624;11.698;2023-03-01T09:56:17;10.32;;;5.38;;
66927;SDS011;59882;45.624;11.698;2023-03-01T09:58:59;9.40;;;4.53;;
66927;SDS011;59882;45.624;11.698;2023-03-01T10:01:49;9.90;;;4.47;;
66927;SDS011;59882;45.624;11.698;2023-03-01T10:07:12;14.43;;;5.25;;
66927;SDS011;59882;45.624;11.698;2023-03-01T10:10:04;9.50;;;4.32;;
66927;SDS011;59882;45.624;11.698;2023-03-01T10:12:35;10.33;;;4.40;;
66927;SDS011;59882;45.624;11.698;2023-03-01T10:17:33;11.68;;;4.95;;
66927;SDS011;59882;45.624;11.698;2023-03-01T10:20:12;8.82;;;4.50;;
66927;SDS011;59882;45.624;11.698;2023-03-01T10:22:44;9.90;;;4.07;;
66927;SDS011;59882;45.624;11.698;2023-03-01T10:25:15;9.52;;;4.20;;
66927;SDS011;59882;45.624;11.698;2023-03-01T10:28:10;10.65;;;4.95;;
66927;SDS011;59882;45.624;11.698;2023-03-01T10:30:40;10.85;;;3.22;;
66927;SDS011;59882;45.624;11.698;2023-03-01T10:33:31;10.63;;;3.40;;
66927;SDS011;59882;45.624;11.698;2023-03-01T10:35:57;9.03;;;3.10;;
66927;SDS011;59882;45.624;11.698;2023-03-01T10:38:23;8.60;;;3.95;;
66927;SDS011;59882;45.624;11.698;2023-03-01T10:40:51;7.53;;;3.38;;
66927;SDS011;59882;45.624;11.698;2023-03-01T10:43:16;9.57;;;4.13;;
66927;SDS011;59882;45.624;11.698;2023-03-01T10:45:42;9.03;;;3.97;;
66927;SDS011;59882;45.624;11.698;2023-03-01T10:51:04;12.05;;;3.80;;
66927;SDS011;59882;45.624;11.698;2023-03-01T10:56:07;8.95;;;3.58;;
66927;SDS011;59882;45.624;11.698;2023-03-01T10:58:35;8.57;;;3.58;;
66927;SDS011;59882;45.624;11.698;2023-03-01T11:03:40;10.93;;;4.50;;
66927;SDS011;59882;45.624;11.698;2023-03-01T11:11:49;15.33;;;4.60;;
66927;SDS011;59882;45.624;11.698;2023-03-01T11:16:44;13.63;;;3.95;;
66927;SDS011;59882;45.624;11.698;2023-03-01T11:21:41;9.90;;;3.83;;
66927;SDS011;59882;45.624;11.698;2023-03-01T11:51:32;20.05;;;4.60;;
66927;SDS011;59882;45.624;11.698;2023-03-01T11:54:25;15.25;;;3.05;;
66927;SDS011;59882;45.624;11.698;2023-03-01T12:07:48;19.73;;;4.63;;
66927;SDS011;59882;45.624;11.698;2023-03-01T12:10:34;14.43;;;4.18;;
66927;SDS011;59882;45.624;11.698;2023-03-01T12:18:21;16.25;;;4.53;;
66927;SDS011;59882;45.624;11.698;2023-03-01T12:21:16;15.68;;;4.35;;
66927;SDS011;59882;45.624;11.698;2023-03-01T12:24:17;13.77;;;3.83;;
66927;SDS011;59882;45.624;11.698;2023-03-01T12:33:28;21.00;;;7.82;;
66927;SDS011;59882;45.624;11.698;2023-03-01T12:47:05;20.45;;;8.00;;
66927;SDS011;59882;45.624;11.698;2023-03-01T12:54:51;13.65;;;4.43;;
66927;SDS011;59882;45.624;11.698;2023-03-01T12:57:23;15.07;;;5.07;;
66927;SDS011;59882;45.624;11.698;2023-03-01T13:00:06;17.08;;;5.35;;
66927;SDS011;59882;45.624;11.698;2023-03-01T13:02:42;17.00;;;5.63;;
66927;SDS011;59882;45.624;11.698;2023-03-01T13:10:39;15.07;;;5.47;;
66927;SDS011;59882;45.624;11.698;2023-03-01T13:15:48;16.35;;;4.93;;
66927;SDS011;59882;45.624;11.698;2023-03-01T13:30:59;15.27;;;4.83;;
66927;SDS011;59882;45.624;11.698;2023-03-01T13:35:55;18.50;;;6.43;;
66927;SDS011;59882;45.624;11.698;2023-03-01T13:41:17;55.15;;;11.30;;
66927;SDS011;59882;45.624;11.698;2023-03-01T13:44:11;48.90;;;9.90;;
66927;SDS011;59882;45.624;11.698;2023-03-01T13:46:45;46.63;;;8.93;;
66927;SDS011;59882;45.624;11.698;2023-03-01T13:49:18;43.83;;;7.20;;
66927;SDS011;59882;45.624;11.698;2023-03-01T13:51:47;46.83;;;7.75;;
66927;SDS011;59882;45.624;11.698;2023-03-01T13:54:20;44.67;;;7.68;;
66927;SDS011;59882;45.624;11.698;2023-03-01T13:56:53;46.22;;;7.30;;
66927;SDS011;59882;45.624;11.698;2023-03-01T13:59:20;48.67;;;6.90;;
66927;SDS011;59882;45.624;11.698;2023-03-01T14:01:54;46.37;;;6.50;;
66927;SDS011;59882;45.624;11.698;2023-03-01T14:04:24;42.88;;;7.18;;
66927;SDS011;59882;45.624;11.698;2023-03-01T14:09:58;43.65;;;6.00;;
66927;SDS011;59882;45.624;11.698;2023-03-01T14:15:17;48.50;;;6.87;;
66927;SDS011;59882;45.624;11.698;2023-03-01T14:21:05;18.88;;;8.50;;
66927;SDS011;59882;45.624;11.698;2023-03-01T14:23:17;56.10;;;12.55;;
66927;SDS011;59882;45.624;11.698;2023-03-01T14:25:46;60.15;;;14.80;;
66927;SDS011;59882;45.624;11.698;2023-03-01T14:30:56;55.72;;;12.05;;
66927;SDS011;59882;45.624;11.698;2023-03-01T14:33:30;31.15;;;8.77;;
66927;SDS011;59882;45.624;11.698;2023-03-01T14:36:04;53.85;;;9.27;;
66927;SDS011;59882;45.624;11.698;2023-03-01T14:38:34;52.03;;;9.88;;
66927;SDS011;59882;45.624;11.698;2023-03-01T14:41:10;50.67;;;9.10;;
66927;SDS011;59882;45.624;11.698;2023-03-01T14:43:52;46.42;;;8.00;;
66927;SDS011;59882;45.624;11.698;2023-03-01T14:46:41;43.63;;;7.60;;
66927;SDS011;59882;45.624;11.698;2023-03-01T14:51:37;48.42;;;8.20;;
66927;SDS011;59882;45.624;11.698;2023-03-01T14:54:21;49.60;;;9.43;;
66927;SDS011;59882;45.624;11.698;2023-03-01T14:56:59;58.33;;;13.00;;
66927;SDS011;59882;45.624;11.698;2023-03-01T14:59:26;57.33;;;12.93;;
66927;SDS011;59882;45.624;11.698;2023-03-01T15:01:53;59.28;;;14.93;;
66927;SDS011;59882;45.624;11.698;2023-03-01T15:04:21;52.10;;;10.27;;
66927;SDS011;59882;45.624;11.698;2023-03-01T15:06:52;48.00;;;9.07;;
66927;SDS011;59882;45.624;11.698;2023-03-01T15:09:19;50.10;;;8.48;;
66927;SDS011;59882;45.624;11.698;2023-03-01T15:11:46;45.13;;;7.97;;
66927;SDS011;59882;45.624;11.698;2023-03-01T15:20:13;54.83;;;10.50;;
66927;SDS011;59882;45.624;11.698;2023-03-01T15:22:45;51.45;;;10.45;;
66927;SDS011;59882;45.624;11.698;2023-03-01T15:25:20;56.17;;;15.82;;
66927;SDS011;59882;45.624;11.698;2023-03-01T15:27:49;57.35;;;16.00;;
66927;SDS011;59882;45.624;11.698;2023-03-01T15:30:21;50.35;;;11.88;;
66927;SDS011;59882;45.624;11.698;2023-03-01T15:33:15;48.90;;;10.80;;
66927;SDS011;59882;45.624;11.698;2023-03-01T15:35:50;51.25;;;10.20;;
66927;SDS011;59882;45.624;11.698;2023-03-01T15:38:25;53.53;;;12.32;;
66927;SDS011;59882;45.624;11.698;2023-03-01T15:41:26;55.20;;;12.38;;
66927;SDS011;59882;45.624;11.698;2023-03-01T15:43:56;56.08;;;13.57;;
66927;SDS011;59882;45.624;11.698;2023-03-01T15:46:38;54.27;;;12.87;;
66927;SDS011;59882;45.624;11.698;2023-03-01T15:49:05;52.35;;;12.18;;
66927;SDS011;59882;45.624;11.698;2023-03-01T15:51:50;52.38;;;10.52;;
66927;SDS011;59882;45.624;11.698;2023-03-01T15:54:19;57.42;;;12.55;;
66927;SDS011;59882;45.624;11.698;2023-03-01T15:56:47;61.07;;;13.53;;
66927;SDS011;59882;45.624;11.698;2023-03-01T15:59:13;68.75;;;15.02;;
66927;SDS011;59882;45.624;11.698;2023-03-01T16:01:39;70.50;;;20.77;;
66927;SDS011;59882;45.624;11.698;2023-03-01T16:04:05;103.63;;;32.13;;
66927;SDS011;59882;45.624;11.698;2023-03-01T16:06:31;103.88;;;34.45;;
66927;SDS011;59882;45.624;11.698;2023-03-01T16:08:57;83.70;;;26.20;;
66927;SDS011;59882;45.624;11.698;2023-03-01T16:11:22;60.60;;;15.35;;
66927;SDS011;59882;45.624;11.698;2023-03-01T16:13:48;52.37;;;11.70;;
66927;SDS011;59882;45.624;11.698;2023-03-01T16:16:15;50.50;;;10.45;;
66927;SDS011;59882;45.624;11.698;2023-03-01T16:18:45;47.25;;;9.10;;
66927;SDS011;59882;45.624;11.698;2023-03-01T16:21:12;46.05;;;9.60;;
66927;SDS011;59882;45.624;11.698;2023-03-01T16:23:45;46.30;;;8.17;;
66927;SDS011;59882;45.624;11.698;2023-03-01T16:26:11;25.63;;;12.05;;
66927;SDS011;59882;45.624;11.698;2023-03-01T16:28:38;47.80;;;7.78;;
66927;SDS011;59882;45.624;11.698;2023-03-01T16:31:04;45.00;;;8.27;;
66927;SDS011;59882;45.624;11.698;2023-03-01T17:18:45;14.50;;;9.50;;
66927;SDS011;59882;45.624;11.698;2023-03-01T17:21:11;16.83;;;8.55;;
66927;SDS011;59882;45.624;11.698;2023-03-01T17:23:38;15.73;;;8.50;;
66927;SDS011;59882;45.624;11.698;2023-03-01T17:26:05;12.93;;;6.95;;
66927;SDS011;59882;45.624;11.698;2023-03-01T17:28:32;11.52;;;7.03;;
66927;SDS011;59882;45.624;11.698;2023-03-01T17:31:00;12.53;;;7.50;;
66927;SDS011;59882;45.624;11.698;2023-03-01T17:33:27;15.25;;;9.27;;
66927;SDS011;59882;45.624;11.698;2023-03-01T17:35:56;14.98;;;9.35;;
66927;SDS011;59882;45.624;11.698;2023-03-01T17:38:22;14.52;;;8.30;;
66927;SDS011;59882;45.624;11.698;2023-03-01T17:40:48;12.43;;;6.87;;
66927;SDS011;59882;45.624;11.698;2023-03-01T17:43:14;16.08;;;8.23;;